Time;durP1;ratioP1;P1;durP2;ratioP2;P2;SDS_P1;SDS_P2;PMS_P1;PMS_P2;Temp;Humidity;BMP_temperature;BMP_pressure;BME280_temperature;BME280_humidity;BME280_pressure;Samples;Min_cycle;Max_cycle;Signal;HPM_P1;HPM_P2
2021/09/13 00:00:46;;;;;;;11.20;6.45;;;12.80;99.90;;;;;;4909223;29;20442;-93
2021/09/13 00:03:12;;;;;;;9.75;6.82;;;12.70;99.90;;;;;;4908407;29;20050;-93
2021/09/13 00:05:38;;;;;;;12.35;6.72;;;12.70;99.90;;;;;;4910981;29;20461;-94
2021/09/13 00:08:04;;;;;;;10.43;5.50;;;12.60;99.90;;;;;;4909092;29;20115;-93
2021/09/13 00:10:30;;;;;;;11.27;5.43;;;12.60;99.90;;;;;;4909966;29;20110;-93
2021/09/13 00:12:55;;;;;;;10.63;5.40;;;12.50;99.90;;;;;;4907245;29;20021;-94
2021/09/13 00:15:21;;;;;;;13.68;6.07;;;12.50;99.90;;;;;;4906089;29;20028;-93
2021/09/13 00:17:47;;;;;;;8.15;5.35;;;12.40;99.90;;;;;;4930535;29;20032;-94
2021/09/13 00:20:13;;;;;;;10.68;5.47;;;12.40;99.90;;;;;;4911534;29;20028;-93
2021/09/13 00:22:38;;;;;;;11.43;5.63;;;12.40;99.90;;;;;;4901573;29;20028;-93
2021/09/13 00:25:05;;;;;;;9.52;5.18;;;12.40;99.90;;;;;;4900963;29;20035;-93
2021/09/13 00:27:30;;;;;;;9.52;5.47;;;12.40;99.90;;;;;;4900521;29;20127;-93
2021/09/13 00:29:56;;;;;;;8.30;5.10;;;12.40;99.90;;;;;;4901306;29;20059;-93
2021/09/13 00:32:22;;;;;;;14.23;5.15;;;12.40;99.90;;;;;;4900795;29;20020;-93
2021/09/13 00:34:48;;;;;;;7.20;4.53;;;12.40;99.90;;;;;;4900951;29;20490;-93
2021/09/13 00:37:14;;;;;;;11.93;5.30;;;12.40;99.90;;;;;;4901015;29;20054;-94
2021/09/13 00:39:39;;;;;;;12.07;5.97;;;12.30;99.90;;;;;;4901017;29;20060;-95
2021/09/13 00:42:05;;;;;;;9.50;4.75;;;12.30;99.90;;;;;;4901446;29;20569;-94
2021/09/13 00:44:31;;;;;;;7.88;4.75;;;12.30;99.90;;;;;;4901458;29;20051;-94
2021/09/13 00:46:59;;;;;;;8.35;4.20;;;12.30;99.90;;;;;;4902389;29;20024;-94
2021/09/13 00:49:25;;;;;;;12.70;4.40;;;12.30;99.90;;;;;;4902626;29;20083;-94
2021/09/13 00:51:51;;;;;;;10.77;4.45;;;12.20;99.90;;;;;;4903078;29;20032;-94
2021/09/13 00:54:17;;;;;;;9.30;4.75;;;12.20;99.90;;;;;;4903666;29;20485;-95
2021/09/13 00:56:42;;;;;;;10.40;4.90;;;12.20;99.90;;;;;;4905554;29;20035;-94
2021/09/13 00:59:09;;;;;;;7.13;4.60;;;12.20;99.90;;;;;;4905016;29;20039;-95
2021/09/13 01:01:35;;;;;;;9.93;4.13;;;12.10;99.90;;;;;;4904470;29;20040;-94
2021/09/13 01:04:01;;;;;;;10.35;4.20;;;12.10;99.90;;;;;;4904583;29;20375;-94
2021/09/13 01:06:26;;;;;;;12.25;4.38;;;12.20;99.90;;;;;;4905619;29;20028;-93
2021/09/13 01:08:53;;;;;;;13.60;4.55;;;12.20;99.90;;;;;;4908928;29;20039;-93
2021/09/13 01:11:19;;;;;;;10.25;5.80;;;12.20;99.90;;;;;;4919428;29;20063;-93
2021/09/13 01:13:45;;;;;;;9.32;5.00;;;12.30;99.90;;;;;;4921931;29;20040;-94
2021/09/13 01:16:10;;;;;;;9.52;4.80;;;12.30;99.90;;;;;;4909824;29;20024;-93
2021/09/13 01:18:36;;;;;;;10.70;4.95;;;12.30;99.90;;;;;;4904043;29;20028;-93
2021/09/13 01:21:03;;;;;;;8.43;4.88;;;12.30;99.90;;;;;;4903856;29;20115;-93
2021/09/13 01:23:34;;;;;;;12.90;4.57;;;12.30;99.90;;;;;;4903899;29;20044;-94
2021/09/13 01:26:00;;;;;;;13.70;5.50;;;12.30;99.90;;;;;;4903324;29;20038;-95
2021/09/13 01:28:26;;;;;;;14.75;5.25;;;12.30;99.90;;;;;;4903084;29;20494;-94
2021/09/13 01:30:52;;;;;;;12.20;5.97;;;12.40;99.90;;;;;;4903037;29;20482;-94
2021/09/13 01:33:19;;;;;;;10.60;5.65;;;12.40;99.90;;;;;;4903294;29;20025;-94
2021/09/13 01:35:44;;;;;;;9.95;7.05;;;12.30;99.90;;;;;;4903607;29;20028;-93
2021/09/13 01:38:10;;;;;;;9.63;6.45;;;12.30;99.90;;;;;;4903177;29;20501;-93
2021/09/13 01:40:35;;;;;;;9.88;7.10;;;12.30;99.90;;;;;;4903417;29;20553;-93
2021/09/13 01:43:02;;;;;;;14.93;7.25;;;12.30;99.90;;;;;;4902795;29;20450;-94
2021/09/13 01:45:29;;;;;;;11.98;6.38;;;12.30;99.90;;;;;;4903154;29;20035;-94
2021/09/13 01:52:47;;;;;;;8.88;6.07;;;12.30;99.90;;;;;;4893846;23;20352;-93
2021/09/13 01:55:13;;;;;;;11.35;6.05;;;12.30;99.90;;;;;;4919238;29;20296;-92
2021/09/13 01:57:39;;;;;;;10.63;5.97;;;12.30;99.90;;;;;;4907413;29;20028;-92
2021/09/13 02:00:07;;;;;;;14.52;6.72;;;12.30;99.90;;;;;;4899555;29;20028;-92
2021/09/13 02:02:32;;;;;;;9.55;6.35;;;12.30;99.90;;;;;;4900557;29;20479;-92
2021/09/13 02:04:58;;;;;;;19.30;6.63;;;12.40;99.90;;;;;;4901986;29;20115;-93
2021/09/13 02:07:24;;;;;;;13.63;6.63;;;12.30;99.90;;;;;;4901413;29;20032;-93
2021/09/13 02:09:52;;;;;;;15.93;7.30;;;12.30;99.90;;;;;;4900487;29;20029;-93
2021/09/13 02:12:21;;;;;;;13.27;7.45;;;12.40;99.90;;;;;;4900490;29;20486;-91
2021/09/13 02:14:47;;;;;;;12.82;7.50;;;12.40;99.90;;;;;;4900849;29;20060;-91
2021/09/13 02:17:14;;;;;;;12.02;7.60;;;12.40;99.90;;;;;;4900374;29;20029;-93
2021/09/13 02:19:40;;;;;;;16.75;7.55;;;12.40;99.90;;;;;;4900843;29;20073;-90
2021/09/13 02:22:05;;;;;;;20.02;8.98;;;12.40;99.90;;;;;;4901247;29;20123;-93
2021/09/13 02:24:31;;;;;;;18.13;8.30;;;12.40;99.90;;;;;;4900198;29;20036;-92
2021/09/13 02:26:57;;;;;;;17.00;8.38;;;12.40;99.90;;;;;;4899910;29;20111;-94
2021/09/13 02:29:22;;;;;;;14.07;8.48;;;12.40;99.90;;;;;;4900210;29;20025;-92
2021/09/13 02:31:48;;;;;;;18.40;8.60;;;12.40;99.90;;;;;;4899960;29;20032;-92
2021/09/13 02:34:14;;;;;;;18.05;9.18;;;12.40;99.90;;;;;;4899531;29;20037;-93
2021/09/13 02:36:39;;;;;;;15.05;8.85;;;12.30;99.90;;;;;;4899166;29;20211;-92
2021/09/13 02:39:06;;;;;;;19.40;9.98;;;12.40;99.90;;;;;;4899377;29;20555;-92
2021/09/13 02:41:32;;;;;;;19.35;10.10;;;12.40;99.90;;;;;;4898855;29;20474;-93
2021/09/13 02:43:58;;;;;;;19.08;8.57;;;12.40;99.90;;;;;;4899262;29;20127;-93
2021/09/13 02:46:24;;;;;;;17.08;9.57;;;12.40;99.90;;;;;;4898963;29;20470;-93
2021/09/13 02:48:49;;;;;;;21.13;9.48;;;12.30;99.90;;;;;;4899189;29;20037;-92
2021/09/13 02:51:15;;;;;;;26.38;10.45;;;12.40;99.90;;;;;;4900542;29;20045;-93
2021/09/13 02:53:41;;;;;;;21.02;9.80;;;12.40;99.90;;;;;;4899158;29;20105;-92
2021/09/13 02:56:06;;;;;;;21.38;10.88;;;12.30;99.90;;;;;;4899220;29;20068;-93
2021/09/13 02:58:32;;;;;;;19.00;10.35;;;12.40;99.90;;;;;;4899438;29;20068;-95
2021/09/13 03:00:58;;;;;;;19.08;10.80;;;12.30;99.90;;;;;;4900840;29;20478;-93
2021/09/13 03:03:23;;;;;;;23.85;11.80;;;12.30;99.90;;;;;;4899435;29;20409;-94
2021/09/13 03:05:49;;;;;;;21.20;10.85;;;12.30;99.90;;;;;;4898601;29;20099;-93
2021/09/13 03:08:15;;;;;;;19.88;10.75;;;12.40;99.90;;;;;;4898695;29;20064;-93
2021/09/13 03:10:40;;;;;;;23.17;11.13;;;12.30;99.90;;;;;;4898922;29;20494;-94
2021/09/13 03:13:06;;;;;;;24.17;12.13;;;12.30;99.90;;;;;;4899009;29;20386;-93
2021/09/13 03:15:32;;;;;;;21.42;10.95;;;12.30;99.90;;;;;;4898843;29;20083;-93
2021/09/13 03:17:57;;;;;;;21.92;11.82;;;12.40;99.90;;;;;;4898489;29;20036;-93
2021/09/13 03:20:23;;;;;;;16.92;10.57;;;12.30;99.90;;;;;;4899828;29;20446;-93
2021/09/13 03:22:49;;;;;;;26.13;11.55;;;12.30;99.90;;;;;;4898352;29;20490;-93
2021/09/13 03:25:14;;;;;;;21.08;11.63;;;12.30;99.90;;;;;;4900053;29;20076;-93
2021/09/13 03:27:40;;;;;;;24.48;12.05;;;12.40;99.90;;;;;;4905583;29;20048;-93
2021/09/13 03:30:07;;;;;;;22.88;10.20;;;12.40;99.90;;;;;;4905079;29;20443;-93
2021/09/13 03:32:32;;;;;;;18.75;10.10;;;12.40;99.90;;;;;;4902790;29;20029;-93
2021/09/13 03:34:58;;;;;;;20.70;9.73;;;12.30;99.90;;;;;;4902998;29;20447;-93
2021/09/13 03:37:24;;;;;;;22.38;10.15;;;12.30;99.90;;;;;;4899755;29;20081;-92
2021/09/13 03:39:50;;;;;;;20.50;9.43;;;12.30;99.90;;;;;;4899698;29;20490;-92
2021/09/13 03:42:15;;;;;;;16.45;7.75;;;12.30;99.90;;;;;;4898977;29;20068;-92
2021/09/13 03:44:42;;;;;;;15.90;8.68;;;12.40;99.90;;;;;;4899829;29;20039;-91
2021/09/13 03:47:07;;;;;;;23.83;8.77;;;12.30;99.90;;;;;;4898403;29;20028;-92
2021/09/13 03:49:33;;;;;;;17.38;7.95;;;12.30;99.90;;;;;;4898354;29;20037;-93
2021/09/13 03:51:59;;;;;;;18.88;7.88;;;12.30;99.90;;;;;;4897813;29;20049;-91
2021/09/13 03:54:24;;;;;;;24.13;8.35;;;12.30;99.90;;;;;;4897801;29;20056;-94
2021/09/13 03:56:51;;;;;;;16.23;8.65;;;12.20;99.90;;;;;;4897762;29;20089;-94
2021/09/13 03:59:16;;;;;;;19.75;9.48;;;12.20;99.90;;;;;;4897772;29;20427;-92
2021/09/13 04:01:42;;;;;;;15.63;7.93;;;12.30;99.90;;;;;;4898577;29;20033;-93
2021/09/13 04:04:09;;;;;;;14.77;8.07;;;12.30;99.90;;;;;;4897580;29;20040;-92
2021/09/13 04:12:01;;;;;;;16.88;8.80;;;12.20;99.90;;;;;;4877123;29;20116;-92
2021/09/13 04:14:29;;;;;;;23.13;10.02;;;12.30;99.90;;;;;;4897539;29;20029;-94
2021/09/13 04:16:56;;;;;;;13.00;7.13;;;12.20;99.90;;;;;;4897577;29;20088;-93
2021/09/13 04:19:23;;;;;;;19.40;7.63;;;12.20;99.90;;;;;;4897872;29;20172;-94
2021/09/13 04:21:51;;;;;;;14.18;6.35;;;12.30;99.90;;;;;;4898781;29;20032;-93
2021/09/13 04:24:17;;;;;;;22.98;7.45;;;12.30;99.90;;;;;;4898483;29;20036;-94
2021/09/13 04:26:43;;;;;;;17.25;7.80;;;12.30;99.90;;;;;;4899463;29;20096;-92
2021/09/13 04:29:09;;;;;;;13.85;6.80;;;12.30;99.90;;;;;;4898496;29;20029;-92
2021/09/13 04:31:35;;;;;;;16.40;6.90;;;12.30;99.90;;;;;;4898762;29;20025;-93
2021/09/13 04:34:01;;;;;;;15.73;6.53;;;12.30;99.90;;;;;;4898461;29;20051;-93
2021/09/13 04:36:27;;;;;;;15.23;8.73;;;12.40;99.90;;;;;;4898165;29;20028;-92
2021/09/13 04:38:53;;;;;;;13.85;6.40;;;12.40;99.90;;;;;;4898167;29;20550;-93
2021/09/13 04:41:19;;;;;;;13.68;5.97;;;12.30;99.90;;;;;;4898275;29;20032;-93
2021/09/13 04:43:44;;;;;;;13.27;6.15;;;12.40;99.90;;;;;;4897879;29;20387;-92
2021/09/13 04:46:10;;;;;;;14.05;6.70;;;12.30;99.90;;;;;;4898095;29;20024;-91
2021/09/13 04:48:36;;;;;;;20.10;6.95;;;12.30;99.90;;;;;;4898221;29;20490;-92
2021/09/13 04:51:02;;;;;;;16.45;6.82;;;12.40;99.90;;;;;;4897926;29;20033;-92
2021/09/13 04:53:28;;;;;;;11.20;6.95;;;12.30;99.90;;;;;;4897975;29;20237;-93
2021/09/13 04:55:53;;;;;;;16.73;7.50;;;12.30;99.90;;;;;;4898317;29;20081;-92
2021/09/13 04:58:19;;;;;;;18.80;7.18;;;12.30;99.90;;;;;;4898161;29;20481;-92
2021/09/13 05:00:45;;;;;;;17.02;7.47;;;12.30;99.90;;;;;;4898140;29;20031;-92
2021/09/13 05:03:10;;;;;;;20.25;7.75;;;12.30;99.90;;;;;;4897969;29;20072;-92
2021/09/13 05:05:36;;;;;;;15.63;7.97;;;12.30;99.90;;;;;;4898332;29;20033;-93
2021/09/13 05:08:02;;;;;;;18.17;8.20;;;12.20;99.90;;;;;;4898551;29;20028;-94
2021/09/13 05:10:28;;;;;;;26.48;9.70;;;12.20;99.90;;;;;;4898312;29;20475;-92
2021/09/13 05:12:54;;;;;;;20.00;10.02;;;12.30;99.90;;;;;;4898353;29;20033;-92
2021/09/13 05:15:19;;;;;;;22.30;9.80;;;12.30;99.90;;;;;;4898322;29;20502;-92
2021/09/13 05:17:45;;;;;;;27.25;9.75;;;12.30;99.90;;;;;;4898075;29;20029;-92
2021/09/13 05:20:13;;;;;;;15.60;9.15;;;12.30;99.90;;;;;;4898084;29;20064;-92
2021/09/13 05:22:38;;;;;;;22.02;10.30;;;12.30;99.90;;;;;;4898638;29;20032;-92
2021/09/13 05:25:05;;;;;;;25.13;11.00;;;12.30;99.90;;;;;;4897936;29;20081;-93
2021/09/13 05:27:30;;;;;;;20.92;10.35;;;12.30;99.90;;;;;;4897987;29;20024;-93
2021/09/13 05:29:56;;;;;;;21.77;10.32;;;12.20;99.90;;;;;;4898521;29;20028;-92
2021/09/13 05:32:22;;;;;;;21.60;10.55;;;12.30;99.90;;;;;;4898141;29;20037;-92
2021/09/13 05:34:47;;;;;;;20.38;9.38;;;12.30;99.90;;;;;;4896203;29;20025;-92
2021/09/13 05:37:13;;;;;;;20.83;9.88;;;12.30;99.90;;;;;;4896767;29;20397;-93
2021/09/13 05:39:39;;;;;;;16.30;9.13;;;12.30;99.90;;;;;;4896831;29;20025;-92
2021/09/13 05:42:05;;;;;;;14.07;8.68;;;12.30;99.90;;;;;;4899895;29;20033;-93
2021/09/13 05:44:31;;;;;;;14.02;8.45;;;12.30;99.90;;;;;;4900360;29;20592;-92
2021/09/13 05:46:57;;;;;;;12.10;7.30;;;12.30;99.90;;;;;;4900574;29;20048;-93
2021/09/13 05:49:23;;;;;;;12.55;6.55;;;12.30;99.90;;;;;;4899935;29;20130;-94
2021/09/13 05:51:51;;;;;;;12.98;7.10;;;12.30;99.90;;;;;;4900178;29;20040;-92
2021/09/13 05:54:26;;;;;;;14.77;7.10;;;12.30;99.90;;;;;;4900237;29;20033;-94
2021/09/13 05:56:56;;;;;;;11.20;6.43;;;12.30;99.90;;;;;;4886186;29;20095;-94
2021/09/13 05:59:24;;;;;;;12.93;7.37;;;12.30;99.90;;;;;;4900503;29;20069;-93
2021/09/13 06:01:53;;;;;;;12.77;6.13;;;12.20;99.90;;;;;;4900452;29;20048;-93
2021/09/13 06:04:19;;;;;;;9.32;5.43;;;12.20;99.90;;;;;;4900682;29;20047;-93
2021/09/13 06:06:44;;;;;;;9.88;6.05;;;12.20;99.90;;;;;;4910816;29;20112;-95
2021/09/13 06:09:13;;;;;;;13.43;6.00;;;12.30;99.90;;;;;;4913575;29;20025;-94
2021/09/13 06:11:44;;;;;;;14.80;7.20;;;12.20;99.90;;;;;;4905274;29;20036;-94
2021/09/13 06:14:10;;;;;;;13.13;6.15;;;12.30;99.90;;;;;;4904740;29;20035;-93
2021/09/13 06:16:36;;;;;;;10.75;6.50;;;12.20;99.90;;;;;;4902169;29;20483;-93
2021/09/13 06:19:06;;;;;;;10.48;5.57;;;12.20;99.90;;;;;;4899797;29;20032;-94
2021/09/13 06:21:32;;;;;;;;;;;12.20;99.90;;;;;;4901025;29;20669;-94
2021/09/13 06:23:58;;;;;;;12.85;5.85;;;12.20;99.90;;;;;;4902557;29;19920;-93
2021/09/13 06:26:23;;;;;;;12.45;5.53;;;12.20;99.90;;;;;;4900064;29;20029;-94
2021/09/13 06:28:55;;;;;;;8.60;5.57;;;12.30;99.90;;;;;;4901914;29;20024;-94
2021/09/13 06:31:20;;;;;;;11.10;6.03;;;12.20;99.90;;;;;;4903051;29;20100;-93
2021/09/13 06:33:46;;;;;;;15.68;6.75;;;12.20;99.90;;;;;;4905406;29;20076;-92
2021/09/13 06:36:12;;;;;;;10.13;6.72;;;12.20;99.90;;;;;;4907265;29;20033;-92
2021/09/13 06:38:38;;;;;;;16.52;7.45;;;12.20;99.90;;;;;;4904653;29;20025;-91
2021/09/13 06:41:03;;;;;;;13.85;6.70;;;12.20;99.90;;;;;;4894080;29;20119;-92
2021/09/13 06:43:29;;;;;;;9.30;6.30;;;12.20;99.90;;;;;;4921098;29;20039;-94
2021/09/13 06:46:08;;;;;;;8.77;6.10;;;12.30;99.90;;;;;;4920850;29;20032;-94
2021/09/13 06:48:33;;;;;;;8.23;5.95;;;12.30;99.90;;;;;;4920822;29;20028;-93
2021/09/13 06:50:59;;;;;;;11.38;6.28;;;12.30;99.90;;;;;;4912498;29;20085;-93
2021/09/13 06:53:25;;;;;;;8.55;6.03;;;12.40;99.90;;;;;;4896408;29;20054;-93
2021/09/13 06:55:51;;;;;;;11.82;6.63;;;12.40;99.90;;;;;;4899765;29;20036;-92
2021/09/13 06:58:16;;;;;;;10.57;6.32;;;12.40;99.90;;;;;;4893472;29;20033;-93
2021/09/13 07:00:42;;;;;;;8.63;5.25;;;12.40;99.90;;;;;;4892631;29;20021;-93
2021/09/13 07:03:08;;;;;;;9.88;5.70;;;12.40;99.90;;;;;;4898464;29;20040;-94
2021/09/13 07:05:34;;;;;;;10.45;5.65;;;12.40;99.90;;;;;;4899085;29;20482;-92
2021/09/13 07:08:01;;;;;;;11.05;5.43;;;12.40;99.90;;;;;;4889853;29;20048;-92
2021/09/13 07:10:27;;;;;;;10.05;5.65;;;12.40;99.90;;;;;;4889866;29;20037;-93
2021/09/13 07:12:53;;;;;;;10.10;5.45;;;12.40;99.90;;;;;;4898532;29;20033;-93
2021/09/13 07:15:19;;;;;;;9.43;5.63;;;12.40;99.90;;;;;;4896657;29;20089;-93
2021/09/13 07:17:45;;;;;;;6.75;4.72;;;12.40;99.90;;;;;;4891850;29;20028;-93
2021/09/13 07:20:11;;;;;;;7.80;5.60;;;12.40;99.90;;;;;;4888185;29;20052;-95
2021/09/13 07:22:37;;;;;;;15.68;6.70;;;12.40;99.90;;;;;;4893300;29;20022;-96
2021/09/13 07:25:04;;;;;;;10.45;5.85;;;12.50;99.90;;;;;;4899534;29;20578;-93
2021/09/13 07:27:29;;;;;;;11.10;5.28;;;12.60;99.90;;;;;;4889374;29;20033;-92
2021/09/13 07:30:00;;;;;;;9.40;5.88;;;12.50;99.90;;;;;;4894147;29;20109;-92
2021/09/13 07:32:32;;;;;;;10.20;6.38;;;12.50;99.90;;;;;;4884474;29;20024;-92
2021/09/13 07:34:58;;;;;;;9.82;6.65;;;12.60;99.90;;;;;;4887351;29;20156;-93
2021/09/13 07:37:24;;;;;;;13.10;6.13;;;12.60;99.90;;;;;;4894884;29;20120;-93
2021/09/13 07:39:49;;;;;;;12.27;6.82;;;12.60;99.90;;;;;;4897088;29;20025;-92
2021/09/13 07:42:15;;;;;;;12.75;6.60;;;12.60;99.90;;;;;;4895596;29;20035;-91
2021/09/13 07:44:41;;;;;;;9.95;6.28;;;12.60;99.90;;;;;;4895502;29;20121;-93
2021/09/13 07:47:10;;;;;;;10.13;6.38;;;12.60;99.90;;;;;;4895869;29;20039;-91
2021/09/13 07:49:36;;;;;;;12.73;6.88;;;12.60;99.90;;;;;;4896398;29;20037;-92
2021/09/13 07:52:02;;;;;;;10.65;5.78;;;12.70;99.90;;;;;;4896781;29;20051;-90
2021/09/13 07:54:37;;;;;;;11.80;5.95;;;12.70;99.90;;;;;;4897171;29;20473;-90
2021/09/13 07:57:02;;;;;;;8.38;5.93;;;12.70;99.90;;;;;;4896985;29;20029;-92
2021/09/13 07:59:28;;;;;;;9.98;5.82;;;12.70;99.90;;;;;;4896132;29;20036;-92
2021/09/13 08:01:54;;;;;;;9.90;5.78;;;12.80;99.90;;;;;;4895045;29;20499;-92
2021/09/13 08:04:19;;;;;;;11.85;5.32;;;12.80;99.90;;;;;;4897165;29;20531;-93
2021/09/13 08:06:45;;;;;;;11.95;5.00;;;12.80;99.90;;;;;;4900058;29;20029;-93
2021/09/13 08:09:11;;;;;;;10.32;5.25;;;12.80;99.90;;;;;;4897207;29;20033;-91
2021/09/13 08:11:37;;;;;;;8.07;5.38;;;12.80;99.90;;;;;;4896946;29;20047;-92
2021/09/13 08:14:02;;;;;;;10.07;5.80;;;12.80;99.90;;;;;;4894497;29;20040;-94
2021/09/13 08:16:29;;;;;;;14.40;5.63;;;12.80;99.90;;;;;;4906591;29;20027;-91
2021/09/13 08:18:57;;;;;;;11.82;6.35;;;12.80;99.90;;;;;;4906867;29;20060;-94
2021/09/13 08:21:24;;;;;;;9.93;5.82;;;12.80;99.90;;;;;;4909855;29;20032;-92
2021/09/13 08:23:49;;;;;;;13.57;7.07;;;12.80;99.90;;;;;;4898107;29;20080;-93
2021/09/13 08:26:16;;;;;;;16.58;6.35;;;12.80;99.90;;;;;;4897441;29;20027;-93
2021/09/13 08:28:43;;;;;;;13.43;6.75;;;12.80;99.90;;;;;;4907269;29;20025;-93
2021/09/13 08:31:09;;;;;;;15.85;6.68;;;12.70;99.90;;;;;;4906646;29;20021;-93
2021/09/13 08:33:35;;;;;;;12.82;7.20;;;12.70;99.90;;;;;;4909205;29;20020;-92
2021/09/13 08:36:02;;;;;;;12.15;6.65;;;12.70;99.90;;;;;;4906841;29;20044;-94
2021/09/13 08:38:28;;;;;;;12.35;6.90;;;12.70;99.90;;;;;;4897971;29;20109;-93
2021/09/13 08:40:54;;;;;;;15.88;6.93;;;12.70;99.90;;;;;;4899392;29;20033;-92
2021/09/13 08:43:20;;;;;;;11.57;6.68;;;12.70;99.90;;;;;;4898608;29;20105;-91
2021/09/13 08:45:52;;;;;;;15.48;7.32;;;12.60;99.90;;;;;;4899042;29;20037;-91
2021/09/13 08:48:49;;;;;;;12.63;6.65;;;12.70;99.90;;;;;;4898023;29;20024;-93
2021/09/13 08:51:30;;;;;;;13.88;5.88;;;12.70;99.90;;;;;;4896432;29;20044;-93
2021/09/13 08:54:03;;;;;;;;;;;12.70;99.90;;;;;;4901221;29;20113;-93
2021/09/13 08:56:37;;;;;;;16.38;6.30;;;12.70;99.90;;;;;;4902191;29;19918;-94
2021/09/13 08:59:04;;;;;;;13.57;6.70;;;12.80;99.90;;;;;;4901987;29;20037;-94
2021/09/13 09:01:32;;;;;;;13.20;5.32;;;12.80;99.90;;;;;;4900577;29;20035;-94
2021/09/13 09:03:58;;;;;;;10.63;5.90;;;12.80;99.90;;;;;;4901374;29;20032;-93
2021/09/13 09:06:35;;;;;;;14.43;5.65;;;12.80;99.90;;;;;;4900504;29;20036;-95
2021/09/13 09:09:21;;;;;;;13.25;6.40;;;12.90;99.90;;;;;;4899653;29;20024;-92
2021/09/13 09:12:02;;;;;;;19.70;6.32;;;12.90;99.90;;;;;;4900651;29;20032;-94
2021/09/13 09:14:44;;;;;;;;;;;13.00;99.90;;;;;;4901078;29;20025;-94
2021/09/13 09:17:13;;;;;;;12.70;6.28;;;13.10;99.90;;;;;;4903703;29;20003;-93
2021/09/13 09:19:39;;;;;;;15.35;6.60;;;13.10;99.90;;;;;;4903421;29;20020;-93
2021/09/13 09:22:28;;;;;;;13.07;6.65;;;13.20;99.90;;;;;;4903817;29;20035;-94
2021/09/13 09:24:56;;;;;;;11.85;6.95;;;13.20;99.90;;;;;;4905076;29;20039;-92
2021/09/13 09:27:23;;;;;;;18.58;7.55;;;13.30;99.90;;;;;;4903753;29;20028;-92
2021/09/13 09:29:57;;;;;;;15.77;6.60;;;13.40;99.90;;;;;;4906745;29;20028;-93
2021/09/13 09:32:27;;;;;;;17.17;7.10;;;13.40;99.90;;;;;;4911022;29;20039;-94
2021/09/13 09:34:57;;;;;;;15.07;6.80;;;13.40;99.90;;;;;;4913998;29;20028;-94
2021/09/13 09:37:25;;;;;;;12.77;6.22;;;13.40;99.90;;;;;;4914651;29;20032;-93
2021/09/13 09:39:55;;;;;;;14.23;6.15;;;13.50;99.90;;;;;;4922212;29;20050;-91
2021/09/13 09:42:30;;;;;;;11.70;6.50;;;13.50;99.90;;;;;;4929397;29;20525;-91
2021/09/13 09:44:57;;;;;;;17.55;6.32;;;13.50;99.90;;;;;;4930395;29;20048;-91
2021/09/13 09:47:23;;;;;;;14.55;6.10;;;13.50;99.90;;;;;;4930602;29;20056;-94
2021/09/13 09:49:52;;;;;;;12.98;5.22;;;13.60;99.90;;;;;;4932852;29;20028;-94
2021/09/13 09:52:32;;;;;;;24.08;6.15;;;13.60;99.90;;;;;;4930193;29;20071;-93
2021/09/13 09:55:16;;;;;;;15.38;6.35;;;13.70;99.90;;;;;;4910560;29;20048;-94
2021/09/13 09:58:06;;;;;;;18.40;6.22;;;13.70;99.90;;;;;;4909527;29;20029;-94
2021/09/13 10:00:37;;;;;;;19.83;5.78;;;13.80;99.90;;;;;;4908380;29;20025;-94
2021/09/13 10:03:03;;;;;;;22.17;6.38;;;13.80;99.90;;;;;;4905585;29;20132;-94
2021/09/13 10:05:30;;;;;;;17.17;7.07;;;13.90;99.90;;;;;;4904748;29;20043;-93
2021/09/13 10:08:00;;;;;;;17.30;6.35;;;13.90;99.90;;;;;;4905618;29;20031;-95
2021/09/13 10:10:29;;;;;;;20.47;6.93;;;13.90;99.90;;;;;;4901823;29;20525;-94
2021/09/13 10:13:00;;;;;;;17.17;6.63;;;14.00;99.90;;;;;;4905424;29;20037;-93
2021/09/13 10:15:27;;;;;;;21.83;6.40;;;14.00;99.90;;;;;;4902896;29;20037;-92
2021/09/13 10:17:53;;;;;;;21.38;6.78;;;14.10;99.90;;;;;;4912209;29;20039;-94
2021/09/13 10:20:22;;;;;;;17.48;6.55;;;14.10;99.90;;;;;;4903012;29;20024;-95
2021/09/13 10:26:35;;;;;;;15.15;6.35;;;14.20;99.90;;;;;;4923706;29;20107;-94
2021/09/13 10:29:04;;;;;;;10.45;5.75;;;14.40;99.90;;;;;;4904599;29;20034;-93
2021/09/13 10:31:42;;;;;;;15.00;6.40;;;14.40;99.90;;;;;;4903046;29;20070;-93
2021/09/13 10:34:21;;;;;;;17.85;6.10;;;14.50;99.90;;;;;;4900453;29;20029;-93
2021/09/13 10:37:01;;;;;;;15.43;6.28;;;14.50;99.90;;;;;;4901935;29;20037;-93
2021/09/13 10:39:59;;;;;;;12.82;5.90;;;14.60;99.90;;;;;;4900631;29;20020;-93
2021/09/13 10:42:43;;;;;;;11.90;6.28;;;14.60;99.90;;;;;;4902130;29;20041;-94
2021/09/13 10:45:31;;;;;;;12.27;5.63;;;14.60;99.90;;;;;;4901363;29;20044;-92
2021/09/13 10:48:12;;;;;;;16.10;5.50;;;14.70;99.90;;;;;;4882848;29;20132;-94
2021/09/13 10:50:46;;;;;;;10.15;4.65;;;14.70;99.90;;;;;;4880265;29;20033;-94
2021/09/13 10:53:18;;;;;;;9.63;4.72;;;14.60;99.90;;;;;;4878592;29;20163;-94
2021/09/13 10:56:02;;;;;;;12.43;5.25;;;14.60;99.90;;;;;;4881017;29;20025;-93
2021/09/13 10:58:44;;;;;;;12.75;5.20;;;14.70;99.90;;;;;;4879328;29;20025;-94
2021/09/13 11:01:23;;;;;;;16.25;5.80;;;14.80;99.90;;;;;;4879825;29;20104;-93
2021/09/13 11:03:51;;;;;;;14.02;5.18;;;14.80;99.90;;;;;;4883346;29;20273;-93
2021/09/13 11:06:17;;;;;;;14.30;5.03;;;14.90;99.90;;;;;;4881692;29;20033;-92
2021/09/13 11:09:02;;;;;;;16.42;4.72;;;15.00;99.90;;;;;;4883397;29;20037;-93
2021/09/13 11:11:45;;;;;;;9.32;4.10;;;15.10;99.90;;;;;;4880531;29;20033;-94
2021/09/13 11:14:11;;;;;;;9.80;5.07;;;15.10;99.90;;;;;;4881236;29;20033;-93
2021/09/13 11:16:48;;;;;;;10.57;4.40;;;15.10;99.90;;;;;;4880983;29;20025;-94
2021/09/13 11:19:16;;;;;;;10.65;4.38;;;15.10;99.90;;;;;;4880584;29;20033;-94
2021/09/13 11:21:45;;;;;;;12.35;4.32;;;15.10;99.90;;;;;;4881838;29;20040;-94
2021/09/13 11:24:16;;;;;;;12.55;4.60;;;15.10;99.90;;;;;;4880589;29;20037;-94
2021/09/13 11:26:58;;;;;;;9.98;4.75;;;15.10;99.90;;;;;;4881987;29;20070;-93
2021/09/13 11:29:40;;;;;;;12.63;4.75;;;15.10;99.90;;;;;;4880365;29;20033;-92
2021/09/13 11:32:15;;;;;;;10.10;5.00;;;15.10;99.90;;;;;;4880639;29;20045;-93
2021/09/13 11:34:43;;;;;;;11.93;4.93;;;15.20;99.90;;;;;;4881953;29;20083;-95
2021/09/13 11:37:26;;;;;;;10.68;4.90;;;15.20;99.90;;;;;;4879507;29;20490;-93
2021/09/13 11:39:57;;;;;;;13.77;4.80;;;15.30;99.90;;;;;;4882378;29;20039;-95
2021/09/13 11:42:30;;;;;;;11.43;4.85;;;15.40;99.90;;;;;;4879826;29;20021;-94
2021/09/13 11:44:59;;;;;;;12.15;4.25;;;15.50;99.90;;;;;;4879421;29;20041;-94
2021/09/13 11:47:27;;;;;;;11.30;4.90;;;15.60;99.90;;;;;;4879535;29;20060;-94
2021/09/13 11:49:56;;;;;;;13.95;5.03;;;15.70;99.90;;;;;;4882674;29;20032;-94
2021/09/13 11:52:30;;;;;;;14.10;4.53;;;15.90;99.90;;;;;;4878416;29;20049;-94
2021/09/13 11:55:06;;;;;;;8.40;4.88;;;15.90;99.90;;;;;;4879751;29;20085;-95
2021/09/13 11:58:00;;;;;;;9.52;4.30;;;16.00;99.90;;;;;;4879718;29;20060;-94
2021/09/13 12:00:37;;;;;;;10.13;3.95;;;16.10;99.90;;;;;;4895050;29;20032;-92
2021/09/13 12:03:06;;;;;;;9.75;4.18;;;16.10;99.90;;;;;;4878910;29;20435;-91
2021/09/13 12:05:33;;;;;;;11.73;4.95;;;16.10;99.90;;;;;;4881233;29;20080;-91
2021/09/13 12:08:00;;;;;;;11.05;4.40;;;16.20;99.90;;;;;;4901448;29;20020;-90
2021/09/13 12:10:30;;;;;;;12.88;4.10;;;16.20;99.90;;;;;;4918833;29;20489;-89
2021/09/13 12:13:18;;;;;;;13.45;4.13;;;16.30;99.90;;;;;;4920339;29;20031;-90
2021/09/13 12:15:52;;;;;;;13.85;4.10;;;16.30;99.90;;;;;;4921024;29;20020;-90
2021/09/13 12:18:19;;;;;;;6.45;4.15;;;16.40;99.90;;;;;;4918781;29;20482;-90
2021/09/13 12:20:46;;;;;;;8.95;3.60;;;16.60;99.90;;;;;;4921353;29;20505;-89
2021/09/13 12:23:14;;;;;;;6.07;3.67;;;16.60;99.90;;;;;;4919266;29;20036;-91
2021/09/13 12:25:51;;;;;;;5.72;4.05;;;16.60;99.90;;;;;;4920785;29;20040;-90
2021/09/13 12:28:22;;;;;;;7.53;3.58;;;16.60;99.90;;;;;;4919486;29;20088;-90
2021/09/13 12:30:54;;;;;;;9.15;3.67;;;16.60;99.90;;;;;;4920624;29;20056;-91
2021/09/13 12:33:20;;;;;;;7.85;3.20;;;16.70;99.90;;;;;;4917366;29;20035;-90
2021/09/13 12:35:49;;;;;;;8.48;3.50;;;16.70;99.90;;;;;;4918713;29;20024;-90
2021/09/13 12:38:19;;;;;;;7.40;3.65;;;16.80;99.90;;;;;;4916751;29;20036;-91
2021/09/13 12:41:00;;;;;;;11.02;4.30;;;16.80;99.90;;;;;;4918502;29;20080;-92
2021/09/13 12:43:30;;;;;;;6.50;3.33;;;16.90;99.90;;;;;;4916910;29;20564;-92
2021/09/13 12:46:07;;;;;;;10.40;3.87;;;16.90;99.90;;;;;;4919837;29;20039;-91
2021/09/13 12:48:37;;;;;;;7.22;3.78;;;16.90;99.90;;;;;;4920233;29;20031;-90
2021/09/13 12:51:04;;;;;;;9.65;3.88;;;16.90;99.90;;;;;;4943436;29;20042;-90
2021/09/13 12:53:30;;;;;;;8.68;3.05;;;17.00;99.90;;;;;;4944811;29;20055;-90
2021/09/13 12:55:58;;;;;;;8.95;3.65;;;17.10;99.90;;;;;;4927595;29;20028;-91
2021/09/13 12:58:34;;;;;;;8.07;3.05;;;17.10;99.90;;;;;;4926565;29;20036;-90